Etusivu
METAR-TAF:

METAR-TAF

Lentoasemat :

Marshalltown Municipal Airport

Marshalltown, Iowa, Yhdysvallat

Leveyspiiri: 42-06-38N, Pituuspiiri: 092-54-58W, korkeus merenpinnasta: 296 m

Tämänhetkinen sää

Tämä raportti tehtiin 51 minuuttia sitten, kello 12.53 UTC
Tuuli 3 kn lounaasta
Lämpötila 14°C
Kosteus 82%
Ilmanpaine 1008 hPa
Näkyvyys: 16.1 km
Pilvistä 11000 ft:n korkeudessa

METAR: KMIW 271253Z AUTO 23003KT 10SM OVC110 14/11 A2976 RMK AO2 SLP073 T01440111

Aika: 08:44 (13:44 UTC)


TAF: puuttuu

Säähavainnot ja -ennusteet yli 4000 lentoasemalta (METAR- ja TAF-raportit).

Käytössä olevat sääasemat on merkitty karttaan keltaisilla ja punaisilla pisteillä.

Aseta hiiri pisteen päälle nähdäksesi sääaseman nimen.

Klikkaa sitten nähdäksesi säähavainnot ja -ennusteet.

Kartan vaihtaminen: klikkaa mustalla rastilla varustettuja vihreitä pisteitä, niin voit zoomata sisään; viivalla varustettua vihreää pistettä, niin voit zoomata ulos tai vihreitä nuolia, niin pääset viereisille kartoille.


METAR-TAF: